ESNQESNZ

Guest
Details From ESNQ - Kiruna
To ESNZ - Are Ostersund
Flight Number -
Tags generated
Created
Modified
Stats Distance 354 nm / 655 km
Max Altitude 34,900 ft / 10,638 m
Waypoints 7
Social Downloads 0
Likes 0
Share VATSIM

Download

Looking for another format? Having issues loading an existing format? Contact us
Advertisement - Login to hide

Notes

Basic altitude profile: - Ascent Rate: 2500ft/min - Ascent Speed: 250kts - Cruise Altitude: 35000ft - Cruise Speed: 420kts - Descent Rate: 1500ft/min - Descent Speed: 250kts Options: - Use NATs: yes - Use PACOTS: yes - Use low airways: yes - Use high airways: yes

Route

ESNQ TIPEL UP600 SOVIL ESNZ

ID Type Via Altitude Latitude Longitude Leg Dist Tot Dist Heading (true) Name
O ESNQ APT - 0 ft / 0 m 67.82198˚ 20.33676˚ - 0 nm - Kiruna
TIPEL FIX - 34,900 ft / 10,638 m 67.26194˚ 16.33000˚ 97 nm 97 nm 252° / 248° -
ABAXI FIX UP600 (AWY-HI) 34,000 ft / 10,363 m 66.78500˚ 15.87583˚ 30 nm 128 nm 201° / 200° -
LIDNA FIX UP600 (AWY-HI) 34,000 ft / 10,363 m 66.33111˚ 15.46083˚ 29 nm 157 nm 200° / 200° -
USIKI FIX UP600 (AWY-HI) 34,000 ft / 10,363 m 66.25750˚ 15.39500˚ 4 nm 162 nm 200° / 200° -
SOVIL FIX UP600 (AWY-HI) 28,500 ft / 8,687 m 64.50056˚ 13.93667˚ 111 nm 273 nm 200° / 198° -
O ESNZ APT - 0 ft / 0 m 63.19412˚ 14.50200˚ 79 nm 353 nm 169° / 169° Are Ostersund

Altitude Profile

Advertisement - Login to hide

Weather


0- 5 10 15 20 25 30 35+ Temperature / ° C

Clouds and Precipitation
Forecast for 2017-12-11 18:00 UTC. Updated 22 minutes ago

Ground ~20,000 ft ~40,000 ft Winds

ESNQ

Details ICAO ESNQ (KRN)
Name Kiruna
Region Sweden
Timezone Europe/Stockholm (UTC+1.0)
Stats Elevation 1,508 ft / 460 m (AMSL)
Location 67.821984° 20.336762°
Runways 1
Magnetic Variation 9.071° E

METAR

ESNQ 111520Z 20010KT 9999 SCT007 BKN036 M05/M06 Q0996

Decode

TAF

Not found

Departure Runways

ID Width Length Bearing (true) Bearing (mag) Surface Threshold Offset Overrun Length
03 148 ft / 45 m 8,183 ft / 2,494 m 33.63° 24.56° Asphalt 0 ft / 0 m 200 ft / 61 m
21 148 ft / 45 m 8,183 ft / 2,494 m 213.66° 204.59° Asphalt 0 ft / 0 m 200 ft / 61 m

ESNZ

Details ICAO ESNZ (OSD)
Name Are Ostersund
Region Sweden
Timezone Europe/Stockholm (UTC+1.0)
Stats Elevation 1,231 ft / 375 m (AMSL)
Location 63.194125° 14.502004°
Runways 1
Magnetic Variation 5.169° E

METAR

ESNZ 111520Z 12009KT 9999 SCT047 M05/M06 Q0995

Decode

TAF

Not found

Destination Runways

ID Width Length Bearing (true) Bearing (mag) Surface Threshold Offset Overrun Length
12 148 ft / 45 m 8,174 ft / 2,491 m 114.70° 109.53° Asphalt 0 ft / 0 m 0 ft / 0 m
30 148 ft / 45 m 8,174 ft / 2,491 m 294.74° 289.57° Asphalt 0 ft / 0 m 180 ft / 55 m

Approach Navaids

Runway Type Ident Frequency Range Bearing (true) Bearing (mag) Slope Elevation
12 Localiser PC 109.50 MHz 18 nm / 33 km 114.73° 109.57° - 1,231 ft / 375 m (AMSL)
12 Glidescope PC 109.50 MHz 10 nm / 19 km 114.72° 109.55° 3.00° 1,231 ft / 375 m (AMSL)